createdAt,value
2024-05-09T00:04:56.124Z,2.30
2024-05-09T00:09:59.853Z,2.05
2024-05-09T00:15:03.389Z,1.63
2024-05-09T00:20:14.449Z,2.10
2024-05-09T00:25:23.849Z,2.00
2024-05-09T00:30:33.665Z,1.75
2024-05-09T00:35:40.351Z,1.88
2024-05-09T00:40:44.113Z,1.75
2024-05-09T00:45:49.112Z,1.80
2024-05-09T00:50:54.570Z,2.35
2024-05-09T00:55:59.248Z,2.25
2024-05-09T01:01:04.194Z,3.10
2024-05-09T01:06:07.890Z,2.53
2024-05-09T01:11:11.592Z,3.30
2024-05-09T01:16:17.494Z,3.00
2024-05-09T01:21:21.072Z,3.08
2024-05-09T01:26:25.971Z,2.50
2024-05-09T01:31:29.769Z,2.25
2024-05-09T01:36:35.156Z,2.72
2024-05-09T01:41:38.921Z,2.97
2024-05-09T01:46:42.466Z,2.47
2024-05-09T01:51:46.515Z,2.63
2024-05-09T01:56:50.159Z,2.67
2024-05-09T02:01:56.979Z,2.80
2024-05-09T02:07:01.344Z,2.88
2024-05-09T02:12:05.358Z,2.83
2024-05-09T02:17:09.164Z,2.45
2024-05-09T02:22:12.838Z,2.40
2024-05-09T02:27:16.471Z,2.78
2024-05-09T02:32:20.163Z,2.53
2024-05-09T02:37:23.843Z,3.25
2024-05-09T02:42:27.500Z,2.63
2024-05-09T02:47:31.193Z,2.85
2024-05-09T02:52:34.742Z,2.63
2024-05-09T02:57:38.203Z,2.45
2024-05-09T03:02:47.402Z,2.42
2024-05-09T03:07:51.192Z,3.17
2024-05-09T03:12:54.775Z,2.40
2024-05-09T03:17:58.827Z,2.95
2024-05-09T03:23:02.700Z,2.83
2024-05-09T03:28:06.922Z,2.92
2024-05-09T03:38:15.751Z,2.97
2024-05-09T03:43:20.312Z,3.03
2024-05-09T03:48:24.664Z,3.13
2024-05-09T03:53:28.665Z,3.60
2024-05-09T03:58:32.164Z,3.55
2024-05-09T04:03:35.908Z,2.95
2024-05-09T04:08:39.720Z,2.60
2024-05-09T04:13:43.940Z,2.70
2024-05-09T04:18:47.566Z,2.40
2024-05-09T04:28:54.164Z,2.80
2024-05-09T04:33:57.860Z,2.25
2024-05-09T04:39:01.697Z,2.42
2024-05-09T04:44:05.454Z,2.53
2024-05-09T04:49:08.916Z,2.40
2024-05-09T04:54:25.771Z,2.60
2024-05-09T04:59:33.953Z,2.10
2024-05-09T05:04:37.513Z,2.30
2024-05-09T05:09:40.918Z,2.20
2024-05-09T05:14:44.281Z,2.53
2024-05-09T05:19:48.335Z,1.85
2024-05-09T05:24:51.842Z,1.77
2024-05-09T05:29:55.157Z,1.75
2024-05-09T05:34:58.615Z,1.75
2024-05-09T05:40:02.491Z,1.85
2024-05-09T05:45:09.896Z,1.40
2024-05-09T05:50:23.776Z,2.00
2024-05-09T05:55:33.328Z,1.40
2024-05-09T06:00:39.226Z,1.33
2024-05-09T06:05:46.450Z,1.52
2024-05-09T06:10:50.476Z,1.90
2024-05-09T06:15:53.864Z,1.52
2024-05-09T06:20:57.271Z,1.50
2024-05-09T06:26:00.847Z,1.90
2024-05-09T06:31:04.392Z,1.65
2024-05-09T06:36:08.434Z,1.77
2024-05-09T06:41:12.093Z,1.50
2024-05-09T06:46:17.863Z,2.05
2024-05-09T06:51:21.771Z,2.17
2024-05-09T06:56:25.305Z,1.98
2024-05-09T07:01:28.713Z,1.90
2024-05-09T07:06:32.206Z,1.95
2024-05-09T07:11:35.572Z,2.13
2024-05-09T07:16:39.099Z,1.45
2024-05-09T07:26:45.985Z,1.80
2024-05-09T07:31:52.183Z,1.70
2024-05-09T07:36:56.058Z,1.60
2024-05-09T07:41:59.670Z,1.50
2024-05-09T07:48:14.168Z,1.92
2024-05-09T07:53:32.302Z,1.75
2024-05-09T07:57:50.066Z,1.63
2024-05-09T08:02:53.522Z,1.90
2024-05-09T08:08:06.336Z,1.70
2024-05-09T08:13:25.530Z,1.77
2024-05-09T08:18:29.290Z,1.70
2024-05-09T08:23:33.078Z,2.03
2024-05-09T08:28:36.452Z,1.67
2024-05-09T08:33:49.654Z,1.95
2024-05-09T08:38:53.333Z,1.88
2024-05-09T08:43:56.881Z,1.83
2024-05-09T08:49:06.025Z,2.10
2024-05-09T08:59:21.551Z,1.88
2024-05-09T09:04:25.873Z,2.00
2024-05-09T09:09:30.285Z,1.77
2024-05-09T09:14:36.495Z,2.28
2024-05-09T09:19:40.981Z,1.70
2024-05-09T09:24:44.891Z,2.17
2024-05-09T09:29:51.821Z,1.90
2024-05-09T09:34:55.330Z,2.30
2024-05-09T09:40:00.103Z,2.13
2024-05-09T09:45:05.689Z,1.90
2024-05-09T09:50:14.451Z,1.77
2024-05-09T09:55:22.576Z,1.88
2024-05-09T10:00:33.036Z,2.17
2024-05-09T10:05:44.052Z,1.77
2024-05-09T10:10:52.571Z,1.63
2024-05-09T10:15:56.251Z,1.52
2024-05-09T10:21:00.310Z,1.65
2024-05-09T10:26:07.035Z,1.70
2024-05-09T10:31:12.340Z,1.85
2024-05-09T10:36:20.249Z,2.35
2024-05-09T10:41:24.215Z,1.63
2024-05-09T10:46:27.876Z,1.77
2024-05-09T10:51:34.603Z,2.10
2024-05-09T10:56:38.197Z,2.47
2024-05-09T11:01:41.869Z,1.90
2024-05-09T11:06:47.291Z,1.50
2024-05-09T11:11:51.151Z,1.63
2024-05-09T11:22:04.803Z,1.65
2024-05-09T11:27:08.286Z,1.45
2024-05-09T11:32:14.383Z,1.23
2024-05-09T11:37:18.195Z,1.20
2024-05-09T11:42:23.074Z,1.40
2024-05-09T11:47:27.063Z,1.20
2024-05-09T11:52:30.619Z,1.38
2024-05-09T11:57:34.252Z,1.10
2024-05-09T12:02:37.960Z,1.30
2024-05-09T12:07:43.943Z,3.40
2024-05-09T12:12:47.492Z,1.08
2024-05-09T12:27:57.966Z,0.90
2024-05-09T12:33:01.658Z,1.00
2024-05-09T12:38:05.558Z,1.13
2024-05-09T12:43:10.283Z,1.25
2024-05-09T12:48:15.214Z,1.05
2024-05-09T12:53:19.166Z,0.98
2024-05-09T12:58:22.959Z,0.90
2024-05-09T13:03:26.533Z,1.00
2024-05-09T13:08:30.168Z,0.82
2024-05-09T13:13:33.641Z,1.00
2024-05-09T13:18:37.402Z,0.80
2024-05-09T13:23:41.123Z,1.00
2024-05-09T13:28:44.705Z,0.88
2024-05-09T13:33:48.708Z,1.25
2024-05-09T13:38:52.690Z,0.82
2024-05-09T13:43:56.131Z,0.73
2024-05-09T13:48:59.820Z,1.10
2024-05-09T13:54:03.613Z,0.75
2024-05-09T13:59:07.745Z,1.00
2024-05-09T14:04:14.288Z,0.80
2024-05-09T14:09:18.049Z,1.42
2024-05-09T14:14:21.580Z,1.77
2024-05-09T14:19:25.279Z,1.00
2024-05-09T14:24:28.891Z,0.63
2024-05-09T14:29:35.774Z,0.80
2024-05-09T14:34:39.509Z,0.70
2024-05-09T14:39:46.078Z,0.60
2024-05-09T14:44:49.556Z,0.90
2024-05-09T14:49:53.354Z,0.85
2024-05-09T14:55:00.356Z,1.00
2024-05-09T15:00:09.113Z,0.73
2024-05-09T15:05:17.849Z,1.00
2024-05-09T15:10:27.531Z,0.65
2024-05-09T15:15:38.113Z,0.98
2024-05-09T15:20:43.758Z,1.08
2024-05-09T15:25:47.432Z,1.13
2024-05-09T15:30:52.191Z,0.60
2024-05-09T15:35:56.496Z,0.75
2024-05-09T15:41:00.353Z,0.57
2024-05-09T15:46:04.159Z,0.82
2024-05-09T15:51:08.377Z,0.90
2024-05-09T15:56:12.424Z,0.90
2024-05-09T16:01:16.107Z,0.93
2024-05-09T16:06:19.868Z,1.27
2024-05-09T16:11:24.110Z,1.40
2024-05-09T16:16:28.079Z,1.98
2024-05-09T16:21:31.819Z,2.10
2024-05-09T16:26:35.616Z,1.90
2024-05-09T16:31:39.223Z,1.92
2024-05-09T16:36:44.349Z,1.88
2024-05-09T16:41:48.551Z,1.88
2024-05-09T16:46:52.169Z,2.35
2024-05-09T16:51:56.139Z,2.40
2024-05-09T16:57:00.038Z,2.83
2024-05-09T17:02:04.078Z,2.85
2024-05-09T17:07:07.916Z,2.30
2024-05-09T17:12:11.734Z,2.60
2024-05-09T17:17:15.897Z,2.45
2024-05-09T17:22:20.724Z,3.03
2024-05-09T17:27:43.063Z,2.60
2024-05-09T17:32:46.802Z,2.83
2024-05-09T17:37:50.613Z,2.53
2024-05-09T17:42:55.294Z,2.42
2024-05-09T17:47:59.446Z,3.03
2024-05-09T17:53:03.447Z,2.70
2024-05-09T17:58:07.305Z,2.20
2024-05-09T18:03:12.655Z,2.60
2024-05-09T18:08:17.139Z,2.40
2024-05-09T18:13:20.692Z,2.30
2024-05-09T18:18:24.437Z,1.92
2024-05-09T18:23:28.127Z,1.80
2024-05-09T18:28:50.892Z,2.63
2024-05-09T18:33:54.870Z,2.08
2024-05-09T18:38:58.635Z,2.05
2024-05-09T18:44:02.442Z,2.17
2024-05-09T18:49:06.626Z,2.10
2024-05-09T18:54:10.414Z,2.13
2024-05-09T18:59:14.213Z,1.75
2024-05-09T19:04:19.248Z,1.92
2024-05-09T19:09:23.141Z,2.08
2024-05-09T19:14:26.870Z,1.58
2024-05-09T19:19:30.543Z,2.00
2024-05-09T19:24:34.497Z,1.77
2024-05-09T19:29:38.135Z,1.90
2024-05-09T19:34:41.718Z,1.83
2024-05-09T19:44:48.987Z,1.85
2024-05-09T19:49:52.631Z,1.30
2024-05-09T19:54:56.283Z,2.13
2024-05-09T19:59:59.961Z,1.90
2024-05-09T20:05:04.197Z,1.95
2024-05-09T20:10:16.463Z,2.15
2024-05-09T20:15:24.302Z,1.55
2024-05-09T20:20:35.952Z,1.77
2024-05-09T20:25:43.686Z,2.03
2024-05-09T20:30:47.622Z,1.80
2024-05-09T20:35:52.636Z,2.83
2024-05-09T20:40:57.432Z,1.85
2024-05-09T20:46:01.678Z,2.10
2024-05-09T20:51:05.506Z,2.72
2024-05-09T20:56:09.357Z,2.50
2024-05-09T21:01:13.045Z,2.30
2024-05-09T21:06:16.936Z,2.17
2024-05-09T21:11:23.331Z,2.65
2024-05-09T21:16:27.227Z,2.40
2024-05-09T21:21:30.935Z,2.65
2024-05-09T21:26:34.852Z,2.83
2024-05-09T21:31:41.344Z,2.47
2024-05-09T21:36:46.638Z,1.98
2024-05-09T21:41:50.356Z,2.53
2024-05-09T21:46:54.528Z,2.72
2024-05-09T21:51:58.154Z,2.85
2024-05-09T21:57:01.654Z,2.88
2024-05-09T22:02:05.548Z,2.60
2024-05-09T22:07:09.731Z,3.50
2024-05-09T22:12:16.064Z,2.95
2024-05-09T22:17:20.028Z,3.15
2024-05-09T22:22:23.794Z,3.10
2024-05-09T22:27:27.334Z,3.72
2024-05-09T22:32:31.157Z,3.05
2024-05-09T22:37:35.231Z,4.00
2024-05-09T22:42:43.671Z,3.10
2024-05-09T22:47:47.448Z,3.42
2024-05-09T22:52:51.016Z,4.32
2024-05-09T22:57:54.669Z,3.58
2024-05-09T23:02:58.712Z,3.17
2024-05-09T23:08:03.298Z,3.47
2024-05-09T23:13:08.263Z,3.47
2024-05-09T23:18:14.564Z,3.50
2024-05-09T23:23:18.433Z,4.60
2024-05-09T23:28:22.318Z,3.58
2024-05-09T23:33:27.056Z,3.90
2024-05-09T23:38:30.651Z,4.63
2024-05-09T23:43:36.800Z,3.38
2024-05-09T23:48:40.462Z,4.38
2024-05-09T23:53:47.444Z,4.68
2024-05-09T23:58:51.080Z,5.35
